createdAt,value
2017-01-02T00:00:55.885Z,0
2017-01-02T00:03:29.367Z,0
2017-01-02T00:06:02.845Z,0
2017-01-02T00:10:53.390Z,0
2017-01-02T00:13:27.544Z,0
2017-01-02T00:16:01.676Z,0
2017-01-02T00:18:38.212Z,0
2017-01-02T00:21:13.681Z,0
2017-01-02T00:23:47.904Z,0
2017-01-02T00:26:23.709Z,0
2017-01-02T00:28:58.122Z,0
2017-01-02T00:31:32.664Z,0
2017-01-02T00:34:07.027Z,0
2017-01-02T00:36:42.707Z,0
2017-01-02T00:39:17.037Z,0
2017-01-02T00:41:52.163Z,0
2017-01-02T00:44:28.424Z,0
2017-01-02T00:47:03.925Z,0
2017-01-02T00:49:38.266Z,0
2017-01-02T00:52:13.889Z,0
2017-01-02T00:54:47.328Z,0
2017-01-02T00:57:20.985Z,0
2017-01-02T00:59:54.118Z,0
2017-01-02T01:02:25.075Z,0
2017-01-02T01:04:58.360Z,0
2017-01-02T01:07:32.504Z,0
2017-01-02T01:10:06.574Z,0
2017-01-02T01:12:40.059Z,0
2017-01-02T01:15:13.055Z,0
2017-01-02T01:17:46.696Z,0
2017-01-02T01:20:19.539Z,0
2017-01-02T01:22:53.834Z,0
2017-01-02T01:25:27.035Z,0
2017-01-02T01:28:03.960Z,0
2017-01-02T01:30:36.932Z,0
2017-01-02T01:35:27.818Z,0
2017-01-02T01:38:03.534Z,0
2017-01-02T01:40:37.790Z,0
2017-01-02T01:43:12.476Z,0
2017-01-02T01:45:46.883Z,0
2017-01-02T01:48:20.212Z,0
2017-01-02T01:50:54.651Z,0
2017-01-02T01:53:30.196Z,0
2017-01-02T01:56:06.920Z,0
2017-01-02T01:58:41.729Z,0
2017-01-02T02:01:16.230Z,0
2017-01-02T02:03:50.975Z,0
2017-01-02T02:06:26.564Z,0
2017-01-02T02:09:01.047Z,0
2017-01-02T02:11:35.429Z,0
2017-01-02T02:14:10.419Z,0
2017-01-02T02:16:47.622Z,0
2017-01-02T02:19:25.513Z,0
2017-01-02T02:22:06.011Z,0
2017-01-02T02:24:47.096Z,0
2017-01-02T02:27:22.237Z,0
2017-01-02T02:29:57.228Z,0
2017-01-02T02:32:32.305Z,0
2017-01-02T02:35:07.612Z,0
2017-01-02T02:37:42.807Z,0
2017-01-02T02:40:17.932Z,0
2017-01-02T02:42:52.956Z,0
2017-01-02T02:45:28.218Z,0
2017-01-02T02:48:02.358Z,0
2017-01-02T02:50:36.959Z,0
2017-01-02T02:53:11.655Z,0
2017-01-02T02:55:46.420Z,0
2017-01-02T02:58:20.568Z,0
2017-01-02T03:00:55.069Z,0
2017-01-02T03:03:31.477Z,0
2017-01-02T03:06:06.252Z,0
2017-01-02T03:08:40.590Z,0
2017-01-02T03:11:10.306Z,0
2017-01-02T03:13:44.663Z,0
2017-01-02T03:16:18.964Z,0
2017-01-02T03:18:54.097Z,0
2017-01-02T03:21:29.826Z,0
2017-01-02T03:24:04.283Z,0
2017-01-02T03:26:38.626Z,0
2017-01-02T03:29:15.030Z,0
2017-01-02T03:31:49.577Z,0
2017-01-02T03:34:23.760Z,0
2017-01-02T03:36:58.501Z,0
2017-01-02T03:39:32.727Z,0
2017-01-02T03:42:09.311Z,0
2017-01-02T03:44:47.823Z,0
2017-01-02T03:47:22.537Z,0
2017-01-02T03:49:57.843Z,0
2017-01-02T03:52:32.502Z,0
2017-01-02T03:55:07.114Z,0
2017-01-02T03:57:42.079Z,0
2017-01-02T04:00:16.622Z,0
2017-01-02T04:02:51.246Z,0
2017-01-02T04:05:25.696Z,0
2017-01-02T04:08:00.175Z,0
2017-01-02T04:10:34.683Z,0
2017-01-02T04:13:04.700Z,0
2017-01-02T04:15:38.838Z,0
2017-01-02T04:18:13.697Z,0
2017-01-02T04:20:48.063Z,0
2017-01-02T04:23:20.340Z,0
2017-01-02T04:25:54.803Z,0
2017-01-02T04:28:30.367Z,0
2017-01-02T04:31:04.686Z,0
2017-01-02T04:33:39.538Z,0
2017-01-02T04:36:12.445Z,0
2017-01-02T04:38:44.718Z,0
2017-01-02T04:41:18.826Z,0
2017-01-02T04:43:53.720Z,0
2017-01-02T04:46:27.978Z,0
2017-01-02T04:49:03.671Z,0
2017-01-02T04:51:38.442Z,0
2017-01-02T04:54:13.244Z,0
2017-01-02T04:56:47.541Z,0
2017-01-02T04:59:24.398Z,0
2017-01-02T05:01:59.030Z,0
2017-01-02T05:04:34.093Z,0
2017-01-02T05:07:08.422Z,0
2017-01-02T05:09:43.828Z,0
2017-01-02T05:12:18.295Z,0
2017-01-02T05:14:52.956Z,0
2017-01-02T05:17:27.671Z,0
2017-01-02T05:20:02.399Z,0
2017-01-02T05:22:36.998Z,0
2017-01-02T05:25:13.837Z,0
2017-01-02T05:27:49.288Z,0
2017-01-02T05:30:23.783Z,0
2017-01-02T05:32:58.270Z,0
2017-01-02T05:35:32.833Z,0
2017-01-02T05:38:07.206Z,0
2017-01-02T05:40:41.779Z,0
2017-01-02T05:43:16.072Z,0
2017-01-02T05:45:44.489Z,0
2017-01-02T05:47:56.813Z,0
2017-01-02T05:50:10.168Z,0
2017-01-02T05:52:22.492Z,0
2017-01-02T05:54:34.772Z,0
2017-01-02T05:56:47.361Z,0
2017-01-02T05:58:59.591Z,0
2017-01-02T06:01:12.211Z,0
2017-01-02T06:03:24.547Z,0
2017-01-02T06:05:36.988Z,0
2017-01-02T06:07:50.341Z,0
2017-01-02T06:10:02.781Z,0
2017-01-02T06:12:10.250Z,0
2017-01-02T06:14:17.626Z,0
2017-01-02T06:16:20.080Z,0
2017-01-02T06:18:32.903Z,0
2017-01-02T06:20:40.406Z,0
2017-01-02T06:22:52.766Z,0
2017-01-02T06:25:06.276Z,0
2017-01-02T06:27:18.719Z,0
2017-01-02T06:29:32.166Z,4
2017-01-02T06:31:44.553Z,0
2017-01-02T06:33:57.004Z,0
2017-01-02T06:36:09.465Z,4
2017-01-02T06:38:21.777Z,4
2017-01-02T06:40:34.136Z,8
2017-01-02T06:42:47.425Z,12
2017-01-02T06:44:59.925Z,20
2017-01-02T06:47:07.559Z,28
2017-01-02T06:49:19.820Z,40
2017-01-02T06:51:27.292Z,56
2017-01-02T06:53:34.970Z,72
2017-01-02T06:55:47.521Z,96
2017-01-02T06:57:59.809Z,120
2017-01-02T07:00:12.378Z,152
2017-01-02T07:02:21.956Z,188
2017-01-02T07:04:29.239Z,228
2017-01-02T07:06:41.580Z,276
2017-01-02T07:08:53.860Z,332
2017-01-02T07:11:03.320Z,384
2017-01-02T07:13:15.599Z,440
2017-01-02T07:15:13.032Z,500
2017-01-02T07:17:16.334Z,560
2017-01-02T07:19:29.540Z,632
2017-01-02T07:21:41.882Z,704
2017-01-02T07:23:55.502Z,776
2017-01-02T07:26:04.299Z,860
2017-01-02T07:28:17.361Z,920
2017-01-02T07:30:31.541Z,992
2017-01-02T07:32:39.720Z,1076
2017-01-02T07:34:47.444Z,1160
2017-01-02T07:37:00.170Z,1208
2017-01-02T07:39:13.636Z,1284
2017-01-02T07:41:26.229Z,1384
2017-01-02T07:43:39.248Z,1404
2017-01-02T07:45:53.490Z,1488
2017-01-02T07:48:05.957Z,1640
2017-01-02T07:50:13.482Z,1792
2017-01-02T07:52:25.796Z,1804
2017-01-02T07:54:38.088Z,1840
2017-01-02T07:56:45.830Z,1808
2017-01-02T07:58:53.323Z,1912
2017-01-02T08:01:05.655Z,2056
2017-01-02T08:03:12.962Z,2156
2017-01-02T08:05:20.717Z,2428
2017-01-02T08:07:33.224Z,2548
2017-01-02T08:09:41.550Z,2536
2017-01-02T08:11:57.981Z,2648
2017-01-02T08:14:11.177Z,2800
2017-01-02T08:16:25.587Z,3044
2017-01-02T08:18:38.003Z,2864
2017-01-02T08:20:50.285Z,3112
2017-01-02T08:23:03.737Z,3200
2017-01-02T08:25:06.256Z,3368
2017-01-02T08:27:20.748Z,3648
2017-01-02T08:29:28.123Z,3748
2017-01-02T08:31:40.619Z,4760
2017-01-02T08:33:55.180Z,5508
2017-01-02T08:36:02.581Z,5200
2017-01-02T08:38:15.080Z,4684
2017-01-02T08:40:23.185Z,4648
2017-01-02T08:42:35.519Z,4920
2017-01-02T08:44:42.902Z,5260
2017-01-02T08:46:50.565Z,5204
2017-01-02T08:48:59.171Z,5604
2017-01-02T08:51:12.375Z,4824
2017-01-02T08:53:25.612Z,3988
2017-01-02T08:55:39.228Z,4468
2017-01-02T08:57:46.516Z,5240
2017-01-02T08:59:58.844Z,4920
2017-01-02T09:02:01.321Z,5196
2017-01-02T09:04:08.925Z,4260
2017-01-02T09:06:21.519Z,4796
2017-01-02T09:08:33.799Z,4052
2017-01-02T09:10:46.204Z,4224
2017-01-02T09:12:55.494Z,4540
2017-01-02T09:15:07.711Z,5024
2017-01-02T09:17:15.078Z,5008
2017-01-02T09:19:22.717Z,5076
2017-01-02T09:21:30.131Z,5684
2017-01-02T09:23:42.372Z,6544
2017-01-02T09:25:54.800Z,5920
2017-01-02T09:28:07.198Z,6336
2017-01-02T09:30:19.354Z,5608
2017-01-02T09:32:31.698Z,6348
2017-01-02T09:34:44.010Z,7896
2017-01-02T09:36:56.177Z,6880
2017-01-02T09:39:08.555Z,8268
2017-01-02T09:41:20.874Z,5984
2017-01-02T09:43:33.221Z,5596
2017-01-02T09:45:45.369Z,5608
2017-01-02T09:47:57.676Z,6068
2017-01-02T09:50:09.841Z,4884
2017-01-02T09:52:22.212Z,4916
2017-01-02T09:54:34.722Z,5296
2017-01-02T09:56:47.111Z,4572
2017-01-02T09:58:59.370Z,5360
2017-01-02T10:01:11.584Z,4736
2017-01-02T10:03:23.810Z,4548
2017-01-02T10:05:31.258Z,5812
2017-01-02T10:07:43.634Z,5160
2017-01-02T10:09:51.094Z,5228
2017-01-02T10:11:58.350Z,5368
2017-01-02T10:14:10.554Z,5488
2017-01-02T10:16:22.883Z,5308
2017-01-02T10:18:30.173Z,5216
2017-01-02T10:20:42.536Z,5224
2017-01-02T10:22:49.854Z,5728
2017-01-02T10:25:02.236Z,5688
2017-01-02T10:27:14.650Z,5808
2017-01-02T10:29:27.156Z,5352
2017-01-02T10:31:39.703Z,5428
2017-01-02T10:33:52.076Z,5836
2017-01-02T10:36:04.257Z,4976
2017-01-02T10:38:16.510Z,5596
2017-01-02T10:40:28.929Z,6224
2017-01-02T10:42:36.363Z,6032
2017-01-02T10:44:48.618Z,4584
2017-01-02T10:47:00.790Z,5344
2017-01-02T10:49:13.063Z,4676
2017-01-02T10:51:18.768Z,4532
2017-01-02T10:53:31.243Z,8136
2017-01-02T10:55:38.846Z,6764
2017-01-02T10:57:52.835Z,7996
2017-01-02T11:00:05.778Z,8628
2017-01-02T11:02:19.063Z,8920
2017-01-02T11:04:31.874Z,6788
2017-01-02T11:06:44.637Z,8620
2017-01-02T11:08:52.582Z,8912
2017-01-02T11:11:04.961Z,8152
2017-01-02T11:13:17.459Z,9220
2017-01-02T11:15:24.807Z,15712
2017-01-02T11:17:37.148Z,12556
2017-01-02T11:19:49.429Z,12308
2017-01-02T11:22:02.075Z,14976
2017-01-02T11:24:14.618Z,9096
2017-01-02T11:26:26.787Z,10428
2017-01-02T11:28:34.126Z,21568
2017-01-02T11:30:41.384Z,24480
2017-01-02T11:32:53.771Z,21568
2017-01-02T11:35:06.183Z,21408
2017-01-02T11:37:18.588Z,21408
2017-01-02T11:39:26.272Z,19808
2017-01-02T11:41:38.489Z,16896
2017-01-02T11:44:14.537Z,14848
2017-01-02T11:46:42.226Z,13564
2017-01-02T11:49:02.198Z,17024
2017-01-02T11:51:14.440Z,15264
2017-01-02T11:53:21.655Z,16896
2017-01-02T11:55:33.906Z,16704
2017-01-02T11:57:41.251Z,16992
2017-01-02T11:59:48.613Z,14016
2017-01-02T12:01:55.969Z,13480
2017-01-02T12:04:06.467Z,13184
2017-01-02T12:06:14.847Z,11260
2017-01-02T12:08:26.942Z,10572
2017-01-02T12:11:12.878Z,10016
2017-01-02T12:13:31.127Z,10644
2017-01-02T12:17:54.325Z,8948
2017-01-02T12:20:06.663Z,9120
2017-01-02T12:22:19.112Z,8956
2017-01-02T12:24:31.535Z,8460
2017-01-02T12:26:43.855Z,7900
2017-01-02T12:28:58.687Z,7592
2017-01-02T12:31:15.632Z,8128
2017-01-02T12:33:28.030Z,9352
2017-01-02T12:35:40.459Z,6724
2017-01-02T12:38:23.247Z,5408
2017-01-02T12:40:58.636Z,5508
2017-01-02T12:43:16.892Z,5668
2017-01-02T12:45:24.163Z,6272
2017-01-02T12:47:36.463Z,8300
2017-01-02T12:49:44.033Z,8264
2017-01-02T12:51:56.284Z,7912
2017-01-02T12:54:08.703Z,6996
2017-01-02T12:56:21.104Z,4828
2017-01-02T12:58:33.569Z,3920
2017-01-02T13:00:46.617Z,4012
2017-01-02T13:03:00.584Z,4316
2017-01-02T13:05:12.910Z,4420
2017-01-02T13:07:20.176Z,4332
2017-01-02T13:09:27.323Z,4936
2017-01-02T13:11:39.717Z,6320
2017-01-02T13:13:51.904Z,5996
2017-01-02T13:16:04.291Z,4612
2017-01-02T13:18:16.536Z,3688
2017-01-02T13:20:28.973Z,3144
2017-01-02T13:22:36.502Z,4780
2017-01-02T13:24:43.903Z,5032
2017-01-02T13:26:56.169Z,4316
2017-01-02T13:29:08.370Z,3556
2017-01-02T13:31:20.785Z,4560
2017-01-02T13:33:33.074Z,4224
2017-01-02T13:35:45.376Z,3152
2017-01-02T13:37:58.130Z,3172
2017-01-02T13:40:05.898Z,3324
2017-01-02T13:42:18.213Z,3820
2017-01-02T13:44:30.686Z,4212
2017-01-02T13:46:37.982Z,3812
2017-01-02T13:48:40.359Z,2476
2017-01-02T13:50:52.588Z,1584
2017-01-02T13:53:04.964Z,1164
2017-01-02T13:55:17.308Z,1096
2017-01-02T13:57:25.768Z,1212
2017-01-02T13:59:39.164Z,1048
2017-01-02T14:01:51.362Z,928
2017-01-02T14:03:58.719Z,880
2017-01-02T14:06:11.255Z,792
2017-01-02T14:08:23.711Z,784
2017-01-02T14:10:31.256Z,780
2017-01-02T14:12:43.601Z,736
2017-01-02T14:14:56.070Z,636
2017-01-02T14:17:06.649Z,620
2017-01-02T14:19:19.149Z,492
2017-01-02T14:21:31.595Z,444
2017-01-02T14:23:43.955Z,388
2017-01-02T14:25:56.449Z,444
2017-01-02T14:28:04.273Z,448
2017-01-02T14:30:16.792Z,572
2017-01-02T14:32:29.229Z,712
2017-01-02T14:34:41.638Z,732
2017-01-02T14:36:49.089Z,628
2017-01-02T14:38:56.532Z,608
2017-01-02T14:41:08.840Z,592
2017-01-02T14:43:21.285Z,588
2017-01-02T14:45:28.774Z,592
2017-01-02T14:47:41.289Z,520
2017-01-02T14:49:53.828Z,444
2017-01-02T14:52:06.243Z,376
2017-01-02T14:54:18.634Z,360
2017-01-02T14:56:30.863Z,344
2017-01-02T14:58:43.316Z,320
2017-01-02T15:00:55.718Z,292
2017-01-02T15:03:07.942Z,264
2017-01-02T15:05:20.420Z,240
2017-01-02T15:07:33.058Z,220
2017-01-02T15:09:57.869Z,200
2017-01-02T15:12:16.330Z,172
2017-01-02T15:14:42.837Z,148
2017-01-02T15:16:53.958Z,132
2017-01-02T15:19:17.326Z,120
2017-01-02T15:21:20.042Z,112
2017-01-02T15:23:32.403Z,104
2017-01-02T15:25:44.779Z,92
2017-01-02T15:27:59.477Z,80
2017-01-02T15:30:25.848Z,60
2017-01-02T15:32:44.322Z,48
2017-01-02T15:35:01.545Z,36
2017-01-02T15:37:09.383Z,24
2017-01-02T15:39:21.811Z,16
2017-01-02T15:41:55.013Z,16
2017-01-02T15:44:11.571Z,16
2017-01-02T15:46:29.717Z,8
2017-01-02T15:48:37.137Z,8
2017-01-02T15:51:00.336Z,8
2017-01-02T15:53:14.346Z,4
2017-01-02T15:55:51.538Z,4
2017-01-02T15:58:09.080Z,0
2017-01-02T16:00:33.419Z,0
2017-01-02T16:03:06.955Z,0
2017-01-02T16:05:59.999Z,0
2017-01-02T16:08:21.797Z,0
2017-01-02T16:11:13.987Z,0
2017-01-02T16:13:49.359Z,0
2017-01-02T16:16:06.957Z,0
2017-01-02T16:18:19.388Z,0
2017-01-02T16:20:31.846Z,0
2017-01-02T16:22:44.810Z,0
2017-01-02T16:24:57.253Z,0
2017-01-02T16:27:18.696Z,0
2017-01-02T16:30:00.769Z,0
2017-01-02T16:32:30.245Z,0
2017-01-02T16:34:42.736Z,0
2017-01-02T16:36:55.246Z,0
2017-01-02T16:39:02.699Z,0
2017-01-02T16:41:15.046Z,0
2017-01-02T16:43:22.410Z,0
2017-01-02T16:45:34.776Z,0
2017-01-02T16:47:47.222Z,0
2017-01-02T16:50:26.563Z,0
2017-01-02T16:52:39.083Z,0
2017-01-02T16:55:02.841Z,0
2017-01-02T16:57:15.642Z,0
2017-01-02T16:59:28.067Z,0
2017-01-02T17:02:10.850Z,0
2017-01-02T17:04:23.776Z,0
2017-01-02T17:06:36.019Z,0
2017-01-02T17:08:49.420Z,0
2017-01-02T17:11:01.737Z,0
2017-01-02T17:13:14.008Z,0
2017-01-02T17:15:26.367Z,0
2017-01-02T17:17:55.211Z,0
2017-01-02T17:20:13.313Z,0
2017-01-02T17:22:25.859Z,0
2017-01-02T17:24:39.537Z,0
2017-01-02T17:26:52.107Z,0
2017-01-02T17:29:05.160Z,0
2017-01-02T17:31:07.785Z,0
2017-01-02T17:33:36.906Z,0
2017-01-02T17:35:55.880Z,0
2017-01-02T17:38:14.788Z,0
2017-01-02T17:40:54.794Z,0
2017-01-02T17:43:24.626Z,0
2017-01-02T17:45:43.037Z,0
2017-01-02T17:47:55.432Z,0
2017-01-02T17:50:25.042Z,0
2017-01-02T17:52:43.987Z,0
2017-01-02T17:54:56.339Z,0
2017-01-02T17:57:09.011Z,0
2017-01-02T17:59:21.401Z,0
2017-01-02T18:01:33.924Z,0
2017-01-02T18:03:46.232Z,0
2017-01-02T18:05:53.701Z,0
2017-01-02T18:08:06.050Z,0
2017-01-02T18:10:18.324Z,0
2017-01-02T18:12:25.681Z,0
2017-01-02T18:14:38.086Z,0
2017-01-02T18:16:52.054Z,0
2017-01-02T18:19:17.297Z,0
2017-01-02T18:22:02.445Z,0
2017-01-02T18:24:42.726Z,0
2017-01-02T18:26:55.253Z,0
2017-01-02T18:29:46.200Z,0
2017-01-02T18:32:26.898Z,0
2017-01-02T18:34:39.832Z,0
2017-01-02T18:36:52.941Z,0
2017-01-02T18:39:05.531Z,0
2017-01-02T18:41:20.191Z,0
2017-01-02T18:43:32.893Z,0
2017-01-02T18:45:45.966Z,0
2017-01-02T18:47:58.826Z,0
2017-01-02T18:50:12.021Z,0
2017-01-02T18:52:25.518Z,0
2017-01-02T18:54:32.869Z,0
2017-01-02T18:56:45.556Z,0
2017-01-02T18:58:58.383Z,0
2017-01-02T19:01:11.018Z,0
2017-01-02T19:03:27.138Z,0
2017-01-02T19:05:53.656Z,0
2017-01-02T19:08:07.394Z,0
2017-01-02T19:10:22.293Z,0
2017-01-02T19:12:35.450Z,0
2017-01-02T19:15:11.632Z,0
2017-01-02T19:17:21.177Z,0
2017-01-02T19:19:51.594Z,0
2017-01-02T19:22:44.712Z,0
2017-01-02T19:25:09.138Z,0
2017-01-02T19:27:51.216Z,0
2017-01-02T19:30:44.577Z,0
2017-01-02T19:33:03.051Z,0
2017-01-02T19:35:15.408Z,0
2017-01-02T19:37:27.874Z,0
2017-01-02T19:39:35.335Z,0
2017-01-02T19:41:48.105Z,0
2017-01-02T19:44:26.579Z,0
2017-01-02T19:46:48.489Z,0
2017-01-02T19:49:01.143Z,0
2017-01-02T19:51:08.644Z,0
2017-01-02T19:53:21.078Z,0
2017-01-02T19:55:33.717Z,0
2017-01-02T19:57:46.111Z,0
2017-01-02T19:59:53.724Z,0
2017-01-02T20:02:05.977Z,0
2017-01-02T20:04:18.329Z,0
2017-01-02T20:06:30.700Z,0
2017-01-02T20:08:43.186Z,0
2017-01-02T20:10:55.700Z,0
2017-01-02T20:13:08.173Z,0
2017-01-02T20:15:20.647Z,0
2017-01-02T20:17:33.144Z,0
2017-01-02T20:19:35.842Z,0
2017-01-02T20:21:48.348Z,0
2017-01-02T20:24:01.692Z,0
2017-01-02T20:26:14.188Z,0
2017-01-02T20:28:27.393Z,0
2017-01-02T20:30:43.333Z,0
2017-01-02T20:32:58.128Z,0
2017-01-02T20:35:10.747Z,0
2017-01-02T20:37:23.350Z,0
2017-01-02T20:39:30.902Z,0
2017-01-02T20:41:43.489Z,0
2017-01-02T20:43:56.087Z,0
2017-01-02T20:45:58.630Z,0
2017-01-02T20:48:15.217Z,0
2017-01-02T20:50:28.248Z,0
2017-01-02T20:52:45.629Z,0
2017-01-02T20:54:58.767Z,0
2017-01-02T20:57:11.998Z,0
2017-01-02T20:59:25.620Z,0
2017-01-02T21:01:40.605Z,0
2017-01-02T21:03:53.607Z,0
2017-01-02T21:06:06.162Z,0
2017-01-02T21:08:13.850Z,0
2017-01-02T21:10:26.434Z,0
2017-01-02T21:12:39.223Z,0
2017-01-02T21:14:52.921Z,0
2017-01-02T21:17:06.107Z,0
2017-01-02T21:19:20.081Z,0
2017-01-02T21:21:33.869Z,0
2017-01-02T21:23:41.649Z,0
2017-01-02T21:25:56.340Z,0
2017-01-02T21:28:10.451Z,0
2017-01-02T21:30:23.051Z,0
2017-01-02T21:32:36.622Z,0
2017-01-02T21:34:49.059Z,0
2017-01-02T21:36:56.548Z,0
2017-01-02T21:39:10.466Z,0
2017-01-02T21:41:22.904Z,0
2017-01-02T21:43:35.875Z,0
2017-01-02T21:45:48.649Z,0
2017-01-02T21:48:01.733Z,0
2017-01-02T21:50:14.355Z,0
2017-01-02T21:52:28.091Z,0
2017-01-02T21:54:40.892Z,0
2017-01-02T21:57:00.369Z,0
2017-01-02T21:59:12.826Z,0
2017-01-02T22:01:28.559Z,0
2017-01-02T22:03:41.125Z,0
2017-01-02T22:05:48.806Z,0
2017-01-02T22:07:57.347Z,0
2017-01-02T22:10:20.822Z,0
2017-01-02T22:12:35.018Z,0
2017-01-02T22:14:51.037Z,0
2017-01-02T22:17:07.779Z,0
2017-01-02T22:19:15.340Z,0
2017-01-02T22:21:25.126Z,0
2017-01-02T22:23:46.658Z,0
2017-01-02T22:26:00.888Z,0
2017-01-02T22:28:16.745Z,0
2017-01-02T22:30:34.020Z,0
2017-01-02T22:32:49.361Z,0
2017-01-02T22:35:02.157Z,0
2017-01-02T22:37:15.519Z,0
2017-01-02T22:39:29.599Z,0
2017-01-02T22:41:50.694Z,0
2017-01-02T22:44:10.228Z,0
2017-01-02T22:46:26.307Z,0
2017-01-02T22:48:38.581Z,0
2017-01-02T22:50:51.570Z,0
2017-01-02T22:53:00.180Z,0
2017-01-02T22:55:14.192Z,0
2017-01-02T22:57:28.874Z,0
2017-01-02T22:59:38.853Z,0
2017-01-02T23:01:51.088Z,0
2017-01-02T23:04:06.622Z,0
2017-01-02T23:06:16.361Z,0
2017-01-02T23:08:33.255Z,0
2017-01-02T23:10:47.210Z,0
2017-01-02T23:13:08.651Z,0
2017-01-02T23:15:30.764Z,0
2017-01-02T23:17:45.222Z,0
2017-01-02T23:20:00.430Z,0
2017-01-02T23:22:19.274Z,0
2017-01-02T23:24:35.305Z,0
2017-01-02T23:26:51.714Z,0
2017-01-02T23:29:08.646Z,0
2017-01-02T23:31:17.850Z,0
2017-01-02T23:33:33.094Z,0
2017-01-02T23:35:42.482Z,0
2017-01-02T23:37:56.383Z,0
2017-01-02T23:40:08.613Z,0
2017-01-02T23:42:21.769Z,0
2017-01-02T23:44:36.815Z,0
2017-01-02T23:46:49.490Z,0
2017-01-02T23:49:02.037Z,0
2017-01-02T23:51:15.848Z,0
2017-01-02T23:53:28.144Z,0
2017-01-02T23:55:35.420Z,0
2017-01-02T23:57:44.116Z,0
